sensor_id;sensor_type;location;lat;lon;timestamp;pressure;altitude;pressure_sealevel;temperature;humidity
76195;BME280;64964;48.694;21.206;2023-04-15T00:00:52;97038.41;;;7.09;80.08
76195;BME280;64964;48.694;21.206;2023-04-15T00:03:18;97036.59;;;7.10;80.17
76195;BME280;64964;48.694;21.206;2023-04-15T00:05:44;97040.50;;;7.14;79.77
76195;BME280;64964;48.694;21.206;2023-04-15T00:08:09;97047.06;;;7.18;79.61
76195;BME280;64964;48.694;21.206;2023-04-15T00:10:34;97051.03;;;7.14;81.66
76195;BME280;64964;48.694;21.206;2023-04-15T00:13:00;97042.81;;;7.17;80.11
76195;BME280;64964;48.694;21.206;2023-04-15T00:15:26;97046.06;;;7.19;80.06
76195;BME280;64964;48.694;21.206;2023-04-15T00:17:52;97047.34;;;7.23;79.50
76195;BME280;64964;48.694;21.206;2023-04-15T00:20:17;97042.44;;;7.28;79.07
76195;BME280;64964;48.694;21.206;2023-04-15T00:22:42;97044.69;;;7.31;79.38
76195;BME280;64964;48.694;21.206;2023-04-15T00:25:08;97046.16;;;7.34;79.20
76195;BME280;64964;48.694;21.206;2023-04-15T00:27:33;97042.38;;;7.36;79.07
76195;BME280;64964;48.694;21.206;2023-04-15T00:29:59;97040.06;;;7.41;78.90
76195;BME280;64964;48.694;21.206;2023-04-15T00:32:24;97037.09;;;7.44;78.85
76195;BME280;64964;48.694;21.206;2023-04-15T00:34:49;97045.41;;;7.48;78.80
76195;BME280;64964;48.694;21.206;2023-04-15T00:37:15;97041.63;;;7.51;78.49
76195;BME280;64964;48.694;21.206;2023-04-15T00:39:41;97039.66;;;7.53;78.63
76195;BME280;64964;48.694;21.206;2023-04-15T00:42:06;97031.31;;;7.49;80.03
76195;BME280;64964;48.694;21.206;2023-04-15T00:44:32;97036.19;;;7.52;78.92
76195;BME280;64964;48.694;21.206;2023-04-15T00:46:59;97027.16;;;7.55;78.50
76195;BME280;64964;48.694;21.206;2023-04-15T00:49:25;97028.78;;;7.56;78.64
76195;BME280;64964;48.694;21.206;2023-04-15T00:51:51;97033.06;;;7.57;78.58
76195;BME280;64964;48.694;21.206;2023-04-15T00:54:16;97027.97;;;7.55;78.94
76195;BME280;64964;48.694;21.206;2023-04-15T00:56:42;97026.16;;;7.56;78.71
76195;BME280;64964;48.694;21.206;2023-04-15T00:59:08;97027.63;;;7.58;78.60
76195;BME280;64964;48.694;21.206;2023-04-15T01:01:37;97025.81;;;7.59;78.72
76195;BME280;64964;48.694;21.206;2023-04-15T01:04:02;97025.63;;;7.60;78.14
76195;BME280;64964;48.694;21.206;2023-04-15T01:06:29;97022.03;;;7.61;78.15
76195;BME280;64964;48.694;21.206;2023-04-15T01:08:55;97015.09;;;7.60;78.47
76195;BME280;64964;48.694;21.206;2023-04-15T01:11:20;97015.28;;;7.59;78.40
76195;BME280;64964;48.694;21.206;2023-04-15T01:13:46;97008.53;;;7.56;78.03
76195;BME280;64964;48.694;21.206;2023-04-15T01:16:12;97015.00;;;7.54;77.89
76195;BME280;64964;48.694;21.206;2023-04-15T01:18:38;97005.63;;;7.51;77.68
76195;BME280;64964;48.694;21.206;2023-04-15T01:21:04;97009.59;;;7.47;77.61
76195;BME280;64964;48.694;21.206;2023-04-15T01:23:30;97010.13;;;7.42;77.21
76195;BME280;64964;48.694;21.206;2023-04-15T01:25:57;97018.88;;;7.35;77.26
76195;BME280;64964;48.694;21.206;2023-04-15T01:28:23;97024.19;;;7.27;77.21
76195;BME280;64964;48.694;21.206;2023-04-15T01:30:49;97016.81;;;7.22;77.18
76195;BME280;64964;48.694;21.206;2023-04-15T01:33:15;97020.16;;;7.16;77.38
76195;BME280;64964;48.694;21.206;2023-04-15T01:35:41;97017.56;;;7.08;77.50
76195;BME280;64964;48.694;21.206;2023-04-15T01:38:10;97016.25;;;7.04;77.33
76195;BME280;64964;48.694;21.206;2023-04-15T01:40:35;97011.34;;;7.01;77.09
76195;BME280;64964;48.694;21.206;2023-04-15T01:43:01;97014.81;;;6.93;76.92
76195;BME280;64964;48.694;21.206;2023-04-15T01:45:27;97013.88;;;6.86;77.03
76195;BME280;64964;48.694;21.206;2023-04-15T01:47:52;97022.25;;;6.81;77.25
76195;BME280;64964;48.694;21.206;2023-04-15T01:50:18;97024.41;;;6.78;77.18
76195;BME280;64964;48.694;21.206;2023-04-15T01:52:44;97022.13;;;6.74;77.32
76195;BME280;64964;48.694;21.206;2023-04-15T01:55:11;97017.84;;;6.73;77.72
76195;BME280;64964;48.694;21.206;2023-04-15T01:57:36;97018.50;;;6.76;77.57
76195;BME280;64964;48.694;21.206;2023-04-15T02:00:02;97025.38;;;6.77;77.82
76195;BME280;64964;48.694;21.206;2023-04-15T02:02:27;97020.94;;;6.77;77.57
76195;BME280;64964;48.694;21.206;2023-04-15T02:04:53;97024.41;;;6.78;77.83
76195;BME280;64964;48.694;21.206;2023-04-15T02:07:18;97018.97;;;6.79;78.00
76195;BME280;64964;48.694;21.206;2023-04-15T02:09:44;97025.88;;;6.80;77.71
76195;BME280;64964;48.694;21.206;2023-04-15T02:12:10;97023.09;;;6.82;78.03
76195;BME280;64964;48.694;21.206;2023-04-15T02:14:35;97021.91;;;6.84;78.29
76195;BME280;64964;48.694;21.206;2023-04-15T02:17:01;97028.63;;;6.87;78.18
76195;BME280;64964;48.694;21.206;2023-04-15T02:19:32;97029.13;;;6.90;77.94
76195;BME280;64964;48.694;21.206;2023-04-15T02:21:57;97019.25;;;6.92;78.08
76195;BME280;64964;48.694;21.206;2023-04-15T02:24:24;97019.91;;;6.94;78.15
76195;BME280;64964;48.694;21.206;2023-04-15T02:26:49;97020.56;;;6.96;78.15
76195;BME280;64964;48.694;21.206;2023-04-15T02:29:14;97024.81;;;6.97;78.28
76195;BME280;64964;48.694;21.206;2023-04-15T02:31:40;97026.28;;;7.00;78.56
76195;BME280;64964;48.694;21.206;2023-04-15T02:34:06;97028.72;;;7.02;78.67
76195;BME280;64964;48.694;21.206;2023-04-15T02:36:32;97021.66;;;7.02;78.60
76195;BME280;64964;48.694;21.206;2023-04-15T02:38:58;97017.88;;;7.05;78.18
76195;BME280;64964;48.694;21.206;2023-04-15T02:41:25;97018.69;;;7.05;78.13
76195;BME280;64964;48.694;21.206;2023-04-15T02:43:52;97019.38;;;7.07;78.10
76195;BME280;64964;48.694;21.206;2023-04-15T02:46:18;97020.00;;;7.09;78.33
76195;BME280;64964;48.694;21.206;2023-04-15T02:48:43;97020.81;;;7.10;78.06
76195;BME280;64964;48.694;21.206;2023-04-15T02:51:19;97016.38;;;7.10;78.93
76195;BME280;64964;48.694;21.206;2023-04-15T02:53:46;97016.03;;;7.13;78.01
76195;BME280;64964;48.694;21.206;2023-04-15T02:56:12;97014.06;;;7.15;77.93
76195;BME280;64964;48.694;21.206;2023-04-15T02:58:41;97016.84;;;7.14;78.24
76195;BME280;64964;48.694;21.206;2023-04-15T03:01:06;97014.88;;;7.16;78.33
76195;BME280;64964;48.694;21.206;2023-04-15T03:03:33;97015.38;;;7.19;78.14
76195;BME280;64964;48.694;21.206;2023-04-15T03:05:58;97012.56;;;7.21;78.00
76195;BME280;64964;48.694;21.206;2023-04-15T03:08:24;97015.19;;;7.21;78.37
76195;BME280;64964;48.694;21.206;2023-04-15T03:10:49;97014.84;;;7.24;77.78
76195;BME280;64964;48.694;21.206;2023-04-15T03:13:16;97010.56;;;7.23;77.97
76195;BME280;64964;48.694;21.206;2023-04-15T03:15:42;97010.41;;;7.24;78.29
76195;BME280;64964;48.694;21.206;2023-04-15T03:18:07;97012.84;;;7.26;78.30
76195;BME280;64964;48.694;21.206;2023-04-15T03:20:33;97006.44;;;7.29;78.09
76195;BME280;64964;48.694;21.206;2023-04-15T03:22:59;97008.06;;;7.30;78.19
76195;BME280;64964;48.694;21.206;2023-04-15T03:25:25;97020.06;;;7.32;78.64
76195;BME280;64964;48.694;21.206;2023-04-15T03:27:51;97011.16;;;7.33;78.55
76195;BME280;64964;48.694;21.206;2023-04-15T03:30:16;97013.63;;;7.35;78.13
76195;BME280;64964;48.694;21.206;2023-04-15T03:32:42;97021.16;;;7.38;78.03
76195;BME280;64964;48.694;21.206;2023-04-15T03:35:07;97014.91;;;7.39;78.25
76195;BME280;64964;48.694;21.206;2023-04-15T03:37:33;97021.63;;;7.41;78.08
76195;BME280;64964;48.694;21.206;2023-04-15T03:39:59;97024.28;;;7.41;78.05
76195;BME280;64964;48.694;21.206;2023-04-15T03:42:24;97026.91;;;7.41;78.27
76195;BME280;64964;48.694;21.206;2023-04-15T03:44:50;97022.28;;;7.43;78.05
76195;BME280;64964;48.694;21.206;2023-04-15T03:47:16;97021.31;;;7.44;78.00
76195;BME280;64964;48.694;21.206;2023-04-15T03:49:41;97025.72;;;7.44;77.64
76195;BME280;64964;48.694;21.206;2023-04-15T03:52:07;97031.81;;;7.44;78.13
76195;BME280;64964;48.694;21.206;2023-04-15T03:54:32;97028.34;;;7.44;78.01
76195;BME280;64964;48.694;21.206;2023-04-15T03:56:57;97032.47;;;7.46;77.94
76195;BME280;64964;48.694;21.206;2023-04-15T03:59:23;97035.91;;;7.47;77.83
76195;BME280;64964;48.694;21.206;2023-04-15T04:01:48;97035.75;;;7.48;77.80
76195;BME280;64964;48.694;21.206;2023-04-15T04:04:13;97037.53;;;7.48;78.00
76195;BME280;64964;48.694;21.206;2023-04-15T04:06:39;97044.44;;;7.49;77.89
76195;BME280;64964;48.694;21.206;2023-04-15T04:09:04;97036.38;;;7.51;77.97
76195;BME280;64964;48.694;21.206;2023-04-15T04:11:30;97044.94;;;7.53;77.97
76195;BME280;64964;48.694;21.206;2023-04-15T04:13:57;97049.19;;;7.54;77.94
76195;BME280;64964;48.694;21.206;2023-04-15T04:16:22;97046.38;;;7.55;77.82
76195;BME280;64964;48.694;21.206;2023-04-15T04:18:48;97040.13;;;7.56;77.71
76195;BME280;64964;48.694;21.206;2023-04-15T04:21:13;97043.75;;;7.55;77.68
76195;BME280;64964;48.694;21.206;2023-04-15T04:23:38;97047.19;;;7.56;77.50
76195;BME280;64964;48.694;21.206;2023-04-15T04:26:04;97057.56;;;7.57;77.70
76195;BME280;64964;48.694;21.206;2023-04-15T04:28:29;97051.47;;;7.57;77.78
76195;BME280;64964;48.694;21.206;2023-04-15T04:30:55;97053.09;;;7.58;77.67
76195;BME280;64964;48.694;21.206;2023-04-15T04:33:20;97044.22;;;7.59;77.73
76195;BME280;64964;48.694;21.206;2023-04-15T04:35:46;97052.78;;;7.61;77.67
76195;BME280;64964;48.694;21.206;2023-04-15T04:38:11;97049.75;;;7.64;77.59
76195;BME280;64964;48.694;21.206;2023-04-15T04:40:36;97049.63;;;7.65;77.36
76195;BME280;64964;48.694;21.206;2023-04-15T04:43:02;97044.34;;;7.65;77.62
76195;BME280;64964;48.694;21.206;2023-04-15T04:45:27;97050.44;;;7.66;77.91
76195;BME280;64964;48.694;21.206;2023-04-15T04:47:52;97050.25;;;7.67;78.15
76195;BME280;64964;48.694;21.206;2023-04-15T04:50:18;97053.34;;;7.71;77.94
76195;BME280;64964;48.694;21.206;2023-04-15T04:52:43;97050.38;;;7.74;78.06
76195;BME280;64964;48.694;21.206;2023-04-15T04:55:09;97050.00;;;7.77;78.24
76195;BME280;64964;48.694;21.206;2023-04-15T04:57:34;97059.84;;;7.83;78.02
76195;BME280;64964;48.694;21.206;2023-04-15T05:00:00;97062.94;;;7.87;77.95
76195;BME280;64964;48.694;21.206;2023-04-15T05:02:27;97056.34;;;7.91;78.03
76195;BME280;64964;48.694;21.206;2023-04-15T05:04:52;97059.25;;;7.96;77.81
76195;BME280;64964;48.694;21.206;2023-04-15T05:07:19;97064.81;;;8.01;78.14
76195;BME280;64964;48.694;21.206;2023-04-15T05:09:45;97060.81;;;8.05;77.82
76195;BME280;64964;48.694;21.206;2023-04-15T05:12:10;97057.84;;;8.08;77.61
76195;BME280;64964;48.694;21.206;2023-04-15T05:14:42;97062.94;;;8.10;77.93
76195;BME280;64964;48.694;21.206;2023-04-15T05:17:07;97065.22;;;8.13;77.63
76195;BME280;64964;48.694;21.206;2023-04-15T05:19:32;97060.41;;;8.16;77.82
76195;BME280;64964;48.694;21.206;2023-04-15T05:21:58;97055.44;;;8.21;77.85
76195;BME280;64964;48.694;21.206;2023-04-15T05:24:23;97062.16;;;8.24;78.29
76195;BME280;64964;48.694;21.206;2023-04-15T05:26:49;97056.38;;;8.29;77.64
76195;BME280;64964;48.694;21.206;2023-04-15T05:29:15;97057.81;;;8.31;77.83
76195;BME280;64964;48.694;21.206;2023-04-15T05:31:40;97069.63;;;8.35;77.44
76195;BME280;64964;48.694;21.206;2023-04-15T05:34:06;97068.31;;;8.39;77.21
76195;BME280;64964;48.694;21.206;2023-04-15T05:36:32;97064.69;;;8.40;77.29
76195;BME280;64964;48.694;21.206;2023-04-15T05:38:57;97067.59;;;8.45;77.59
76195;BME280;64964;48.694;21.206;2023-04-15T05:41:23;97070.69;;;8.49;77.32
76195;BME280;64964;48.694;21.206;2023-04-15T05:43:48;97062.88;;;8.56;77.03
76195;BME280;64964;48.694;21.206;2023-04-15T05:46:13;97066.00;;;8.74;77.43
76195;BME280;64964;48.694;21.206;2023-04-15T05:48:39;97066.63;;;9.20;77.20
76195;BME280;64964;48.694;21.206;2023-04-15T05:51:04;97069.38;;;10.06;76.73
76195;BME280;64964;48.694;21.206;2023-04-15T05:53:30;97075.31;;;10.79;74.47
76195;BME280;64964;48.694;21.206;2023-04-15T05:55:56;97076.81;;;11.30;72.98
76195;BME280;64964;48.694;21.206;2023-04-15T05:58:21;97085.28;;;11.60;71.83
76195;BME280;64964;48.694;21.206;2023-04-15T06:00:46;97081.84;;;11.72;71.18
76195;BME280;64964;48.694;21.206;2023-04-15T06:03:12;97092.06;;;11.82;70.75
76195;BME280;64964;48.694;21.206;2023-04-15T06:05:37;97101.91;;;11.88;70.45
76195;BME280;64964;48.694;21.206;2023-04-15T06:08:03;97098.44;;;11.88;70.33
76195;BME280;64964;48.694;21.206;2023-04-15T06:10:28;97100.22;;;11.81;69.79
76195;BME280;64964;48.694;21.206;2023-04-15T06:12:54;97106.72;;;11.71;69.58
76195;BME280;64964;48.694;21.206;2023-04-15T06:15:20;97106.56;;;11.45;68.96
76195;BME280;64964;48.694;21.206;2023-04-15T06:17:45;97102.47;;;11.36;69.59
76195;BME280;64964;48.694;21.206;2023-04-15T06:20:11;97113.22;;;11.28;69.62
76195;BME280;64964;48.694;21.206;2023-04-15T06:22:37;97110.00;;;10.97;68.43
76195;BME280;64964;48.694;21.206;2023-04-15T06:25:06;97119.66;;;10.84;68.98
76195;BME280;64964;48.694;21.206;2023-04-15T06:27:32;97116.72;;;10.72;70.13
76195;BME280;64964;48.694;21.206;2023-04-15T06:29:58;97118.91;;;10.62;70.57
76195;BME280;64964;48.694;21.206;2023-04-15T06:32:23;97120.97;;;10.66;70.97
76195;BME280;64964;48.694;21.206;2023-04-15T06:34:48;97126.06;;;10.68;71.07
76195;BME280;64964;48.694;21.206;2023-04-15T06:37:14;97119.16;;;10.73;71.10
76195;BME280;64964;48.694;21.206;2023-04-15T06:39:41;97122.50;;;10.82;71.22
76195;BME280;64964;48.694;21.206;2023-04-15T06:42:12;97125.41;;;10.87;70.62
76195;BME280;64964;48.694;21.206;2023-04-15T06:44:38;97121.94;;;10.87;70.42
76195;BME280;64964;48.694;21.206;2023-04-15T06:47:03;97124.03;;;10.98;70.41
76195;BME280;64964;48.694;21.206;2023-04-15T06:49:28;97128.22;;;11.14;70.64
76195;BME280;64964;48.694;21.206;2023-04-15T06:51:54;97128.50;;;11.32;69.97
76195;BME280;64964;48.694;21.206;2023-04-15T06:54:19;97133.69;;;11.47;68.91
76195;BME280;64964;48.694;21.206;2023-04-15T06:56:45;97132.22;;;11.44;68.25
76195;BME280;64964;48.694;21.206;2023-04-15T06:59:11;97144.31;;;11.54;68.82
76195;BME280;64964;48.694;21.206;2023-04-15T07:01:37;97144.88;;;11.49;68.41
76195;BME280;64964;48.694;21.206;2023-04-15T07:04:02;97144.09;;;11.55;68.74
76195;BME280;64964;48.694;21.206;2023-04-15T07:06:27;97149.78;;;11.52;68.50
76195;BME280;64964;48.694;21.206;2023-04-15T07:08:53;97150.81;;;11.51;68.58
76195;BME280;64964;48.694;21.206;2023-04-15T07:11:19;97143.88;;;11.50;68.77
76195;BME280;64964;48.694;21.206;2023-04-15T07:13:45;97152.22;;;11.47;68.18
76195;BME280;64964;48.694;21.206;2023-04-15T07:16:10;97152.41;;;11.45;68.37
76195;BME280;64964;48.694;21.206;2023-04-15T07:18:36;97156.03;;;11.38;67.89
76195;BME280;64964;48.694;21.206;2023-04-15T07:21:01;97154.59;;;11.35;68.32
76195;BME280;64964;48.694;21.206;2023-04-15T07:23:27;97163.09;;;11.31;68.41
76195;BME280;64964;48.694;21.206;2023-04-15T07:25:52;97165.53;;;11.26;68.75
76195;BME280;64964;48.694;21.206;2023-04-15T07:28:17;97157.97;;;11.22;68.87
76195;BME280;64964;48.694;21.206;2023-04-15T07:30:43;97155.69;;;11.19;68.86
76195;BME280;64964;48.694;21.206;2023-04-15T07:33:08;97163.47;;;11.21;69.00
76195;BME280;64964;48.694;21.206;2023-04-15T07:35:34;97167.31;;;11.18;69.08
76195;BME280;64964;48.694;21.206;2023-04-15T07:37:59;97166.88;;;11.15;68.91
76195;BME280;64964;48.694;21.206;2023-04-15T07:40:24;97165.63;;;11.11;69.19
76195;BME280;64964;48.694;21.206;2023-04-15T07:42:50;97166.44;;;11.11;69.19
76195;BME280;64964;48.694;21.206;2023-04-15T07:45:16;97165.63;;;11.11;69.11
76195;BME280;64964;48.694;21.206;2023-04-15T07:47:41;97177.22;;;11.10;68.99
76195;BME280;64964;48.694;21.206;2023-04-15T07:50:08;97178.19;;;11.02;68.85
76195;BME280;64964;48.694;21.206;2023-04-15T07:52:35;97177.34;;;11.02;68.63
76195;BME280;64964;48.694;21.206;2023-04-15T07:55:06;97172.44;;;10.98;68.82
76195;BME280;64964;48.694;21.206;2023-04-15T07:57:36;97177.31;;;10.95;68.93
76195;BME280;64964;48.694;21.206;2023-04-15T08:00:02;97161.97;;;10.84;68.99
76195;BME280;64964;48.694;21.206;2023-04-15T08:02:31;97171.53;;;10.85;69.05
76195;BME280;64964;48.694;21.206;2023-04-15T08:04:57;97167.50;;;10.89;68.86
76195;BME280;64964;48.694;21.206;2023-04-15T08:07:23;97170.38;;;10.94;69.00
76195;BME280;64964;48.694;21.206;2023-04-15T08:09:48;97168.81;;;11.00;68.76
76195;BME280;64964;48.694;21.206;2023-04-15T08:12:13;97179.72;;;10.90;68.80
76195;BME280;64964;48.694;21.206;2023-04-15T08:14:40;97175.81;;;10.86;68.06
76195;BME280;64964;48.694;21.206;2023-04-15T08:17:05;97178.16;;;10.74;68.57
76195;BME280;64964;48.694;21.206;2023-04-15T08:19:31;97178.41;;;10.79;68.67
76195;BME280;64964;48.694;21.206;2023-04-15T08:21:56;97189.59;;;10.81;68.65
76195;BME280;64964;48.694;21.206;2023-04-15T08:24:23;97175.00;;;10.85;68.55
76195;BME280;64964;48.694;21.206;2023-04-15T08:26:50;97180.03;;;10.80;68.56
76195;BME280;64964;48.694;21.206;2023-04-15T08:29:16;97177.53;;;10.72;68.36
76195;BME280;64964;48.694;21.206;2023-04-15T08:31:41;97177.47;;;10.65;68.62
76195;BME280;64964;48.694;21.206;2023-04-15T08:34:06;97180.56;;;10.47;69.59
76195;BME280;64964;48.694;21.206;2023-04-15T08:36:32;97184.72;;;10.35;70.14
76195;BME280;64964;48.694;21.206;2023-04-15T08:38:57;97183.53;;;10.23;71.05
76195;BME280;64964;48.694;21.206;2023-04-15T08:41:25;97174.06;;;9.92;72.20
76195;BME280;64964;48.694;21.206;2023-04-15T08:44:00;97188.94;;;9.64;73.68
76195;BME280;64964;48.694;21.206;2023-04-15T08:46:29;97186.69;;;9.46;75.99
76195;BME280;64964;48.694;21.206;2023-04-15T08:48:56;97192.41;;;9.20;77.30
76195;BME280;64964;48.694;21.206;2023-04-15T08:51:22;97198.38;;;8.99;79.68
76195;BME280;64964;48.694;21.206;2023-04-15T08:53:48;97199.69;;;8.80;81.12
76195;BME280;64964;48.694;21.206;2023-04-15T08:56:15;97207.78;;;8.79;81.91
76195;BME280;64964;48.694;21.206;2023-04-15T08:58:43;97209.53;;;8.63;81.99
76195;BME280;64964;48.694;21.206;2023-04-15T09:01:10;97219.03;;;8.50;81.82
76195;BME280;64964;48.694;21.206;2023-04-15T09:03:36;97224.25;;;8.27;77.27
76195;BME280;64964;48.694;21.206;2023-04-15T09:06:03;97226.91;;;8.18;78.19
76195;BME280;64964;48.694;21.206;2023-04-15T09:08:29;97229.25;;;7.82;78.54
76195;BME280;64964;48.694;21.206;2023-04-15T09:10:54;97206.28;;;7.68;76.21
76195;BME280;64964;48.694;21.206;2023-04-15T09:13:19;97209.00;;;7.35;77.20
76195;BME280;64964;48.694;21.206;2023-04-15T09:15:45;97208.88;;;7.20;79.50
76195;BME280;64964;48.694;21.206;2023-04-15T09:18:11;97211.50;;;7.20;81.41
76195;BME280;64964;48.694;21.206;2023-04-15T09:20:41;97208.56;;;7.23;81.95
76195;BME280;64964;48.694;21.206;2023-04-15T09:23:15;97201.44;;;7.40;82.01
76195;BME280;64964;48.694;21.206;2023-04-15T09:25:41;97193.97;;;7.60;79.15
76195;BME280;64964;48.694;21.206;2023-04-15T09:28:07;97205.59;;;7.74;82.80
76195;BME280;64964;48.694;21.206;2023-04-15T09:30:32;97196.44;;;7.93;81.21
76195;BME280;64964;48.694;21.206;2023-04-15T09:33:00;97193.06;;;8.15;80.24
76195;BME280;64964;48.694;21.206;2023-04-15T09:35:27;97191.41;;;8.45;79.85
76195;BME280;64964;48.694;21.206;2023-04-15T09:38:01;97194.13;;;8.75;80.09
76195;BME280;64964;48.694;21.206;2023-04-15T09:40:31;97194.19;;;9.05;78.89
76195;BME280;64964;48.694;21.206;2023-04-15T09:43:01;97198.88;;;9.32;78.76
76195;BME280;64964;48.694;21.206;2023-04-15T09:45:28;97206.94;;;9.60;78.71
76195;BME280;64964;48.694;21.206;2023-04-15T09:47:53;97202.94;;;9.79;76.61
76195;BME280;64964;48.694;21.206;2023-04-15T09:50:19;97203.47;;;9.89;76.99
76195;BME280;64964;48.694;21.206;2023-04-15T09:52:45;97207.72;;;10.05;76.60
76195;BME280;64964;48.694;21.206;2023-04-15T09:55:13;97204.94;;;9.92;72.39
76195;BME280;64964;48.694;21.206;2023-04-15T09:57:38;97202.91;;;10.09;74.08
76195;BME280;64964;48.694;21.206;2023-04-15T10:00:08;97199.31;;;10.16;73.97
76195;BME280;64964;48.694;21.206;2023-04-15T10:02:36;97198.03;;;10.48;74.39
76195;BME280;64964;48.694;21.206;2023-04-15T10:05:02;97203.97;;;10.51;72.28
76195;BME280;64964;48.694;21.206;2023-04-15T10:07:28;97195.97;;;10.65;73.22
76195;BME280;64964;48.694;21.206;2023-04-15T10:09:54;97198.00;;;10.63;73.70
76195;BME280;64964;48.694;21.206;2023-04-15T10:12:20;97196.16;;;10.85;73.13
76195;BME280;64964;48.694;21.206;2023-04-15T10:14:55;97186.31;;;11.01;72.27
76195;BME280;64964;48.694;21.206;2023-04-15T10:17:25;97184.19;;;11.17;71.94
76195;BME280;64964;48.694;21.206;2023-04-15T10:19:53;97177.00;;;11.39;73.51
76195;BME280;64964;48.694;21.206;2023-04-15T10:22:19;97172.56;;;11.46;70.04
76195;BME280;64964;48.694;21.206;2023-04-15T10:24:45;97170.63;;;11.68;71.30
76195;BME280;64964;48.694;21.206;2023-04-15T10:27:11;97159.16;;;11.89;71.00
76195;BME280;64964;48.694;21.206;2023-04-15T10:29:36;97161.66;;;12.04;71.91
76195;BME280;64964;48.694;21.206;2023-04-15T10:32:02;97163.28;;;12.12;68.46
76195;BME280;64964;48.694;21.206;2023-04-15T10:34:28;97167.22;;;12.36;69.92
76195;BME280;64964;48.694;21.206;2023-04-15T10:36:56;97169.28;;;12.54;69.82
76195;BME280;64964;48.694;21.206;2023-04-15T10:39:39;97166.84;;;12.79;73.30
76195;BME280;64964;48.694;21.206;2023-04-15T10:42:12;97167.28;;;13.09;70.03
76195;BME280;64964;48.694;21.206;2023-04-15T10:44:42;97165.59;;;13.41;69.94
76195;BME280;64964;48.694;21.206;2023-04-15T10:47:16;97163.94;;;13.60;65.44
76195;BME280;64964;48.694;21.206;2023-04-15T10:49:58;97167.28;;;13.93;68.37
76195;BME280;64964;48.694;21.206;2023-04-15T10:52:25;97170.66;;;14.14;65.81
76195;BME280;64964;48.694;21.206;2023-04-15T10:55:19;97168.25;;;14.06;58.29
76195;BME280;64964;48.694;21.206;2023-04-15T10:57:45;97167.31;;;14.25;61.54
76195;BME280;64964;48.694;21.206;2023-04-15T11:00:14;97179.69;;;14.51;63.56
76195;BME280;64964;48.694;21.206;2023-04-15T11:05:06;97175.50;;;14.93;64.75
76195;BME280;64964;48.694;21.206;2023-04-15T11:07:54;97168.53;;;15.17;63.12
76195;BME280;64964;48.694;21.206;2023-04-15T11:12:46;97165.31;;;15.52;63.08
76195;BME280;64964;48.694;21.206;2023-04-15T11:15:36;97163.34;;;15.66;61.56
76195;BME280;64964;48.694;21.206;2023-04-15T11:18:22;97164.09;;;15.73;59.29
76195;BME280;64964;48.694;21.206;2023-04-15T11:20:57;97165.78;;;15.86;61.92
76195;BME280;64964;48.694;21.206;2023-04-15T11:23:33;97166.75;;;15.91;60.69
76195;BME280;64964;48.694;21.206;2023-04-15T11:26:00;97163.63;;;15.94;59.92
76195;BME280;64964;48.694;21.206;2023-04-15T11:28:29;97165.50;;;15.94;60.14
76195;BME280;64964;48.694;21.206;2023-04-15T11:30:55;97158.38;;;15.88;60.03
76195;BME280;64964;48.694;21.206;2023-04-15T11:33:21;97167.50;;;15.80;59.55
76195;BME280;64964;48.694;21.206;2023-04-15T11:35:48;97166.81;;;15.66;60.05
76195;BME280;64964;48.694;21.206;2023-04-15T11:38:14;97174.19;;;15.46;60.56
76195;BME280;64964;48.694;21.206;2023-04-15T11:40:40;97183.13;;;15.33;60.92
76195;BME280;64964;48.694;21.206;2023-04-15T11:43:13;97186.78;;;15.14;61.23
76195;BME280;64964;48.694;21.206;2023-04-15T11:45:53;97182.59;;;15.00;61.44
76195;BME280;64964;48.694;21.206;2023-04-15T11:48:21;97182.94;;;14.85;62.26
76195;BME280;64964;48.694;21.206;2023-04-15T11:50:52;97190.81;;;14.66;62.97
76195;BME280;64964;48.694;21.206;2023-04-15T11:53:18;97186.25;;;14.49;63.36
76195;BME280;64964;48.694;21.206;2023-04-15T11:55:47;97202.06;;;14.30;63.54
76195;BME280;64964;48.694;21.206;2023-04-15T11:58:16;97213.84;;;14.03;63.60
76195;BME280;64964;48.694;21.206;2023-04-15T12:00:53;97209.25;;;13.72;65.76
76195;BME280;64964;48.694;21.206;2023-04-15T12:08:59;97198.28;;;13.21;67.67
76195;BME280;64964;48.694;21.206;2023-04-15T12:13:53;97204.00;;;13.12;66.59
76195;BME280;64964;48.694;21.206;2023-04-15T12:16:19;97197.88;;;13.18;67.46
76195;BME280;64964;48.694;21.206;2023-04-15T12:18:46;97200.31;;;13.19;67.61
76195;BME280;64964;48.694;21.206;2023-04-15T12:21:12;97196.03;;;13.18;67.14
76195;BME280;64964;48.694;21.206;2023-04-15T12:23:51;97196.63;;;13.20;67.03
76195;BME280;64964;48.694;21.206;2023-04-15T12:26:17;97186.88;;;13.34;67.76
76195;BME280;64964;48.694;21.206;2023-04-15T12:28:53;97191.72;;;13.64;68.74
76195;BME280;64964;48.694;21.206;2023-04-15T12:31:18;97199.75;;;14.02;68.45
76195;BME280;64964;48.694;21.206;2023-04-15T12:33:47;97208.25;;;14.62;66.29
76195;BME280;64964;48.694;21.206;2023-04-15T12:36:13;97209.75;;;15.33;66.33
76195;BME280;64964;48.694;21.206;2023-04-15T12:38:38;97215.28;;;16.30;66.90
76195;BME280;64964;48.694;21.206;2023-04-15T12:41:04;97224.47;;;16.95;61.85
76195;BME280;64964;48.694;21.206;2023-04-15T12:43:29;97222.78;;;17.24;59.64
76195;BME280;64964;48.694;21.206;2023-04-15T12:45:54;97225.31;;;17.07;59.58
76195;BME280;64964;48.694;21.206;2023-04-15T12:48:20;97209.69;;;16.80;58.11
76195;BME280;64964;48.694;21.206;2023-04-15T12:50:45;97210.84;;;16.54;59.06
76195;BME280;64964;48.694;21.206;2023-04-15T12:53:11;97237.38;;;16.19;59.36
76195;BME280;64964;48.694;21.206;2023-04-15T12:55:37;97283.91;;;15.05;57.17
76195;BME280;64964;48.694;21.206;2023-04-15T12:58:02;97274.69;;;14.31;55.10
76195;BME280;64964;48.694;21.206;2023-04-15T13:00:27;97281.16;;;13.70;56.75
76195;BME280;64964;48.694;21.206;2023-04-15T13:02:53;97294.59;;;12.95;56.97
76195;BME280;64964;48.694;21.206;2023-04-15T13:05:18;97301.84;;;12.47;59.59